x

Jonesport, Me - 20 Nm Se Of Jonesport, Me (44027) Wave Buoy

6:50am - Wed 22nd Feb 2017 All times are AST. -4 hours from GMT.

  • Sig Wave height 3.0ft
  • Swell Direction
  • Peak Period 5s
  • Average Period 4s
  • Wind
    16mph, 18mph gusts
  • Sea Temp 40°f
  • Air Temp 34°f
  • Sea Pressure 1017.1mb
  • Jonesport, Me - 20 Nm Se Of Jonesport, Me
  • Jonesport, Me - 20 Nm Se Of Jonesport, Me

More Historic Weather Station data

Upgrade to MSW Pro to gain access to the past 30 days of data for over 8000 Wavebouys and Weather Stations around the globe.

Join Pro

Comparision Forecast

View Surf forecast
   
Wed 02/22 6:50am 3ft 5s 4s 16 18 mph 1017.1mb 40f 34f
5:50am 2.5ft 4s 4s 16 18 mph 1017.2mb 40f 33f
4:50am 2.5ft 4s 4s 16 18 mph 1017.7mb 40f 33f
3:50am 2.5ft 4s 4s 16 18 mph 1018.2mb 41f 32f
2:50am 2.5ft 4s 4s 16 20 mph 1019.4mb 41f 32f
1:50am 2ft 3s 3s 16 20 mph 1019.7mb 41f 32f
12:50am 1.6ft 3s 3s 16 20 mph 1020.5mb 40f 32f
Tue 02/21 11:50pm 1.3ft 3s 3s 16 18 mph 1020.9mb 40f 33f
10:50pm 1ft 2s 3s 13 16 mph 1021.4mb 40f 33f
9:50pm 0.7ft  -  4s 11 13 mph 1022mb 40f 32f
8:50pm 1ft 5s 4s 9 11 mph 1022.7mb 40f 32f
7:50pm 1ft 5s 4s 7 9 mph 1023.3mb 40f 31f
6:50pm 1ft 5s 4s 4 7 mph 1023.4mb 41f 31f
5:50pm 1.3ft 5s 4s 4 7 mph 1024.5mb 41f 31f
4:50pm 1.3ft 5s 4s 4 7 mph 1025.1mb 41f 31f
3:50pm 1.3ft 5s 4s  -  2 mph 1025.3mb 41f 32f
2:50pm 1.3ft 5s 4s 2 4 mph 1025.7mb 41f 30f
1:50pm 2ft 5s 4s 4 7 mph 1026.3mb 41f 29f
12:50pm 2ft 5s 4s 7
mph
1026.6mb 41f 29f
11:50am 2.5ft 5s 4s 7 9 mph 1027.6mb 40f 29f
10:50am 3ft 5s 4s 11 13 mph 1027.6mb 40f 28f
9:50am 3ft 5s 4s 11 13 mph 1027.9mb 40f 28f
8:50am 2.5ft 4s 4s 11 13 mph 1028.2mb 40f 28f
7:50am 3ft 5s 4s 16 18 mph 1027.5mb 40f 28f
6:50am 3.5ft 5s 4s 16 18 mph 1026.4mb 41f 27f
5:50am 3.5ft 5s 4s 18 22 mph 1026.3mb 41f 27f
4:50am 3.5ft 5s 4s 20 22 mph 1026.2mb 41f 28f
3:50am 3.5ft 4s 4s 22 25 mph 1026.4mb 41f 29f
2:50am 3.5ft 4s 4s 22 27 mph 1026.1mb 41f 29f
1:50am 3.5ft 4s 4s 22 27 mph 1025.7mb 41f 30f
12:50am 3.5ft 4s 4s 25 29 mph 1025.5mb 41f 31f
Mon 02/20 11:50pm 3.5ft 4s 4s 25 29 mph 1024.5mb 41f 32f
10:50pm 4.5ft 4s 4s 27 31 mph 1024.2mb 41f 33f
9:50pm 3.5ft 4s 4s 25 31 mph 1023.8mb 41f 35f
8:50pm 3ft 4s 4s 25 29 mph 1023.2mb 41f 36f
7:50pm 3ft 4s 4s 22 27 mph 1022.8mb 41f 37f
6:50pm 3ft 8s 4s 20 22 mph 1021.9mb 41f 38f
5:50pm 3ft 4s 4s 18 22 mph 1021mb 41f 38f
4:50pm 2.5ft 4s 4s 18 22 mph 1020mb 41f 38f
3:50pm 3ft 4s 4s 18 22 mph 1019.1mb 41f 37f
2:50pm 3ft 4s 4s 18 22 mph 1018mb 41f 36f
1:50pm 3.5ft 4s 4s 20 25 mph 1017.6mb 41f 35f
12:50pm 3.5ft 4s 4s 22 27 mph 1017.3mb 41f 34f
11:50am 4ft 4s 4s 20 25 mph 1017.5mb 41f 33f
10:50am 4.5ft 4s 4s 22 27 mph 1017.1mb 41f 32f
9:50am 4.5ft 4s 4s 27 29 mph 1016.6mb 40f 32f
8:50am 4ft 4s 4s 27 31 mph 1015.9mb 40f 32f
7:50am 3.5ft 4s 4s 20 25 mph 1014.9mb 40f 31f
6:50am 4ft 4s 4s 22 27 mph 1013.7mb 40f 32f
5:50am 4.5ft 5s 5s 22 25 mph 1013.1mb 40f 33f
4:50am 3.5ft 4s 4s 25 29 mph 1012.1mb 40f 34f
3:50am 3.5ft 8s 4s 22 27 mph 1011.2mb 41f 35f
2:50am 3.5ft 4s 4s 22 27 mph 1010.7mb 41f 35f
1:50am 3.5ft 4s 4s 20 25 mph 1010.1mb 41f 34f
12:50am 3.5ft 4s 4s 20 25 mph 1009.7mb 41f 34f
Sun 02/19 11:50pm 3ft 7s 4s 20 25 mph 1009.1mb 41f 33f
10:50pm 3.5ft 7s 5s 16 20 mph 1008.5mb 41f 35f
9:50pm 3.5ft 7s 5s 13 16 mph 1007.8mb 41f 34f
8:50pm 3.5ft 7s 5s 11 16 mph 1007mb 41f 36f
7:50pm 4ft 7s 6s 16 18 mph 1006mb 41f 36f
6:50pm 4ft 7s 6s 9 11 mph 1004.9mb 41f 36f
5:50pm 4ft 7s 5s 11 13 mph 1003.7mb 41f 36f
4:50pm 4.5ft 7s 6s 16 18 mph 1002.8mb 41f 35f
3:50pm 4ft 7s 5s 13
mph
1001.9mb 41f 37f
2:50pm 4.5ft 7s 5s 11 13 mph 1001.3mb 41f 37f
1:50pm 4.5ft 7s 5s 11 16 mph 1001.1mb 41f 38f
12:50pm 4.5ft 7s 5s 13 16 mph 1001.6mb 41f 37f
11:50am 4.5ft 7s 6s 16 18 mph 1002.1mb 41f 37f
10:50am 4.5ft 8s 6s 16 18 mph 1001.9mb 41f 36f
9:50am 5ft 8s 6s 11 13 mph 1001.5mb 41f 36f
8:50am 5ft 8s 6s 16 20 mph 1001mb 40f 36f
7:50am 6ft 8s 6s 16 20 mph 999.9mb 40f 36f
6:50am 6ft 8s 6s 13 18 mph 998.7mb 40f 35f
5:50am 6ft 8s 6s 13
mph
998.1mb 40f 35f
4:50am 6ft 8s 6s 16 20 mph 997.2mb 40f 37f
3:50am 6.5ft 8s 6s 18 20 mph 996.6mb 40f 37f
2:50am 6.5ft 7s 6s 18 20 mph 996.4mb 41f 38f
1:50am 6ft 7s 5s 22 27 mph 996.2mb 41f 38f